Time;durP1;ratioP1;P1;durP2;ratioP2;P2;SDS_P1;SDS_P2;PMS_P1;PMS_P2;Temp;Humidity;BMP_temperature;BMP_pressure;BME280_temperature;BME280_humidity;BME280_pressure;Samples;Min_cycle;Max_cycle;Signal;HPM_P1;HPM_P2
2022/03/26 00:00:17;;;;;;;25.77;17.73;;;;;;;11.96;35.21;100969.72;1088908;46;20045;-78
2022/03/26 00:01:21;;;;;;;27.13;18.63;;;;;;;11.94;35.50;100963.63;1088720;46;20082;-77
2022/03/26 00:02:23;;;;;;;25.30;18.55;;;;;;;11.91;35.26;100965.72;1088211;54;20038;-78
2022/03/26 00:03:27;;;;;;;26.30;18.90;;;;;;;11.79;35.72;100960.41;1088203;54;20041;-78
2022/03/26 00:04:28;;;;;;;31.95;20.95;;;;;;;11.63;35.96;100960.88;1088083;54;20037;-77
2022/03/26 00:05:33;;;;;;;31.73;21.35;;;;;;;11.49;36.37;100962.03;1088594;39;20527;-78
2022/03/26 00:06:34;;;;;;;30.35;20.98;;;;;;;11.49;36.38;100963.88;1092698;39;20547;-78
2022/03/26 00:07:38;;;;;;;34.65;23.42;;;;;;;11.30;36.70;100965.41;1088217;54;20054;-78
2022/03/26 00:08:42;;;;;;;32.15;21.23;;;;;;;11.43;36.58;100961.72;1088188;54;20034;-77
2022/03/26 00:09:44;;;;;;;33.10;21.90;;;;;;;11.28;36.87;100970.03;1088155;54;20038;-78
2022/03/26 00:10:48;;;;;;;30.98;20.40;;;;;;;11.43;36.57;100967.06;1088129;54;20737;-77
2022/03/26 00:11:50;;;;;;;29.77;20.65;;;;;;;11.49;36.44;100969.22;1088052;54;20034;-78
2022/03/26 00:12:56;;;;;;;32.22;20.10;;;;;;;11.51;36.58;100968.09;1088718;46;20057;-77
2022/03/26 00:14:00;;;;;;;29.17;20.45;;;;;;;11.44;36.52;100971.41;1088147;54;20034;-78
2022/03/26 00:15:06;;;;;;;35.95;21.98;;;;;;;11.25;37.22;100970.25;1088044;54;20030;-78
2022/03/26 00:16:10;;;;;;;32.20;22.10;;;;;;;11.31;36.68;100964.44;1088538;46;20033;-78
2022/03/26 00:17:12;;;;;;;32.42;21.98;;;;;;;11.19;37.19;100965.44;1088074;54;20078;-78
2022/03/26 00:18:18;;;;;;;34.80;23.42;;;;;;;11.15;37.09;100963.97;1088112;54;20034;-78
2022/03/26 00:19:20;;;;;;;44.00;22.83;;;;;;;11.11;37.26;100966.03;1088037;54;20052;-77
2022/03/26 00:20:25;;;;;;;31.58;21.33;;;;;;;11.23;36.91;100964.22;1087923;54;20030;-79
2022/03/26 00:21:27;;;;;;;32.20;21.63;;;;;;;11.14;37.35;100970.31;1088235;39;20870;-78
2022/03/26 00:22:31;;;;;;;30.90;21.40;;;;;;;11.08;37.56;100969.84;1087901;54;20034;-78
2022/03/26 00:23:35;;;;;;;34.20;20.80;;;;;;;11.11;37.45;100967.88;1088015;54;20049;-78
2022/03/26 00:24:36;;;;;;;31.02;21.05;;;;;;;11.26;36.88;100969.28;1088425;39;20599;-78
2022/03/26 00:25:41;;;;;;;26.40;19.13;;;;;;;11.37;36.84;100973.78;1087934;54;20061;-79
2022/03/26 00:26:42;;;;;;;26.63;18.27;;;;;;;11.42;36.75;100968.03;1088074;54;20595;-78
2022/03/26 00:27:47;;;;;;;30.38;20.40;;;;;;;11.35;36.81;100971.22;1088770;46;20568;-79
2022/03/26 00:28:51;;;;;;;29.85;18.92;;;;;;;11.41;36.50;100977.03;1087957;54;20047;-79
2022/03/26 00:29:52;;;;;;;26.17;17.77;;;;;;;11.42;36.59;100979.59;1087981;54;20041;-78
2022/03/26 00:30:59;;;;;;;26.92;18.63;;;;;;;11.42;36.55;100976.91;1089988;39;20531;-78
2022/03/26 00:32:02;;;;;;;25.65;17.75;;;;;;;11.42;36.28;100968.03;1088009;54;20066;-78
2022/03/26 00:33:06;;;;;;;23.52;16.58;;;;;;;11.46;36.28;100978.38;1088974;46;20025;-78
2022/03/26 00:34:12;;;;;;;29.83;19.30;;;;;;;11.32;36.64;100967.94;1087693;54;20015;-78
2022/03/26 00:35:14;;;;;;;26.48;17.15;;;;;;;11.43;36.28;100970.56;1088175;54;20034;-78
2022/03/26 00:36:18;;;;;;;24.80;16.38;;;;;;;11.50;36.17;100968.25;1087988;54;20094;-78
2022/03/26 00:37:20;;;;;;;25.98;16.83;;;;;;;11.41;36.43;100977.03;1087936;54;20037;-79
2022/03/26 00:38:24;;;;;;;24.85;17.42;;;;;;;11.43;36.44;100975.94;1088071;54;20058;-78
2022/03/26 00:39:25;;;;;;;26.63;18.13;;;;;;;11.38;36.40;100978.16;1088003;54;20042;-79
2022/03/26 00:40:30;;;;;;;27.20;17.50;;;;;;;11.43;36.49;100975.09;1088020;54;20030;-77
2022/03/26 00:41:33;;;;;;;35.35;17.50;;;;;;;11.44;36.36;100980.31;1088175;54;20070;-78
2022/03/26 00:42:38;;;;;;;24.85;16.50;;;;;;;11.51;36.07;100977.97;1088375;54;20025;-78
2022/03/26 00:43:43;;;;;;;22.30;14.35;;;;;;;11.53;36.19;100978.69;1088215;54;20046;-78
2022/03/26 00:44:48;;;;;;;24.70;15.82;;;;;;;11.51;36.07;100977.97;1088259;54;20078;-78
2022/03/26 00:45:50;;;;;;;26.52;16.70;;;;;;;11.46;36.16;100980.19;1088181;54;20040;-78
2022/03/26 00:46:57;;;;;;;28.25;18.33;;;;;;;11.37;36.52;100971.09;1088152;54;20648;-78
2022/03/26 00:48:02;;;;;;;23.88;16.42;;;;;;;11.39;36.34;100969.13;1088135;54;20026;-78
2022/03/26 00:49:04;;;;;;;23.60;17.10;;;;;;;11.46;36.20;100974.81;1088058;54;20026;-78
2022/03/26 00:50:10;;;;;;;22.48;15.25;;;;;;;11.47;36.24;100979.19;1088215;54;20053;-78
2022/03/26 00:51:12;;;;;;;24.10;16.42;;;;;;;11.42;36.48;100976.91;1088129;54;20106;-78
2022/03/26 00:52:16;;;;;;;27.92;18.65;;;;;;;11.33;36.68;100978.53;1088202;54;20015;-78
2022/03/26 00:53:20;;;;;;;28.85;19.60;;;;;;;11.16;37.50;100981.72;1088524;47;20061;-78
2022/03/26 00:54:23;;;;;;;30.23;21.95;;;;;;;10.98;38.11;100995.63;1088358;54;20034;-78
2022/03/26 00:55:27;;;;;;;33.75;21.70;;;;;;;10.89;37.90;100985.69;1088382;54;20030;-77
2022/03/26 00:56:28;;;;;;;34.67;22.58;;;;;;;10.75;38.61;100990.34;1088232;54;20031;-77
2022/03/26 00:57:33;;;;;;;30.75;21.48;;;;;;;10.60;38.95;100986.19;1088279;54;20026;-78
2022/03/26 00:58:36;;;;;;;32.83;21.73;;;;;;;10.56;39.20;100990.09;1088383;54;20069;-78
2022/03/26 00:59:40;;;;;;;31.25;23.02;;;;;;;10.41;39.68;100986.81;1088402;54;20045;-79
2022/03/26 01:00:43;;;;;;;33.53;23.40;;;;;;;10.34;39.83;100986.41;1091960;47;20038;-78
2022/03/26 01:01:48;;;;;;;29.17;20.52;;;;;;;10.35;39.65;100988.09;1091277;39;20251;-79
2022/03/26 01:02:52;;;;;;;30.75;21.42;;;;;;;10.29;39.77;100994.78;1088375;54;20022;-78
2022/03/26 01:03:56;;;;;;;30.10;20.63;;;;;;;10.31;39.63;100986.63;1088640;47;20018;-80
2022/03/26 01:04:57;;;;;;;29.88;19.67;;;;;;;10.30;39.51;100988.47;1088625;47;20033;-76
2022/03/26 01:06:02;;;;;;;29.50;19.20;;;;;;;10.29;39.66;100993.94;1089512;47;20034;-77
2022/03/26 01:07:04;;;;;;;30.05;19.30;;;;;;;10.26;39.88;100986.16;1088290;54;20053;-77
2022/03/26 01:08:09;;;;;;;35.97;22.30;;;;;;;10.15;40.21;100987.84;1088160;54;20019;-79
2022/03/26 01:09:10;;;;;;;32.65;22.50;;;;;;;10.15;39.96;100987.84;1088208;54;20037;-78
2022/03/26 01:10:16;;;;;;;29.88;19.88;;;;;;;10.14;40.28;100996.00;1088096;54;20037;-79
2022/03/26 01:11:17;;;;;;;30.92;20.98;;;;;;;10.12;40.24;100993.41;1088112;54;20023;-76
2022/03/26 01:12:22;;;;;;;30.63;21.42;;;;;;;10.12;39.96;100993.41;1088078;54;20030;-76
2022/03/26 01:13:25;;;;;;;31.45;20.63;;;;;;;10.12;39.95;100992.56;1089278;47;20041;-76
2022/03/26 01:14:29;;;;;;;31.58;20.20;;;;;;;10.10;40.21;100995.38;1090879;47;20037;-76
2022/03/26 01:15:31;;;;;;;33.00;21.67;;;;;;;10.06;40.22;100991.22;1088121;54;20618;-78
2022/03/26 01:16:35;;;;;;;30.45;20.90;;;;;;;10.11;39.88;100991.72;1088085;54;20030;-78
2022/03/26 01:17:37;;;;;;;32.78;20.10;;;;;;;10.12;39.81;100981.88;1088023;54;20035;-79
2022/03/26 01:18:44;;;;;;;30.27;20.73;;;;;;;10.08;40.01;100996.44;1088056;54;20043;-77
2022/03/26 01:19:49;;;;;;;28.73;19.08;;;;;;;10.13;39.83;100988.94;1087982;54;20061;-78
2022/03/26 01:20:51;;;;;;;31.50;22.60;;;;;;;10.11;40.01;100977.50;1087998;47;20039;-78
2022/03/26 01:21:55;;;;;;;31.48;21.70;;;;;;;10.07;40.08;100982.25;1087919;54;20094;-78
2022/03/26 01:22:59;;;;;;;33.03;21.92;;;;;;;10.02;40.36;100980.91;1088004;54;20031;-78
2022/03/26 01:24:00;;;;;;;34.67;22.45;;;;;;;9.95;40.47;100977.84;1088043;54;20042;-78
2022/03/26 01:25:05;;;;;;;33.45;22.88;;;;;;;9.91;40.46;100977.22;1088401;47;20042;-76
2022/03/26 01:26:07;;;;;;;33.40;22.50;;;;;;;9.90;40.36;100980.03;1088090;54;20034;-76
2022/03/26 01:27:11;;;;;;;29.73;20.83;;;;;;;9.92;40.33;100980.75;1088118;54;20030;-75
2022/03/26 01:28:14;;;;;;;31.50;22.02;;;;;;;9.94;40.32;100986.81;1088591;47;20049;-75
2022/03/26 01:29:19;;;;;;;32.85;20.20;;;;;;;9.84;40.66;100982.19;1087986;54;20103;-76
2022/03/26 01:31:26;;;;;;;33.38;21.27;;;;;;;9.84;40.65;100986.69;1084479;54;20031;-78
2022/03/26 01:32:28;;;;;;;31.00;21.42;;;;;;;9.76;41.04;100991.75;1085894;54;20049;-79
2022/03/26 01:33:32;;;;;;;35.20;21.98;;;;;;;9.74;41.55;100988.34;1085572;54;20081;-79
2022/03/26 01:34:40;;;;;;;32.92;23.05;;;;;;;9.69;41.43;100986.03;1085364;54;20069;-79
2022/03/26 01:35:41;;;;;;;32.10;21.88;;;;;;;9.69;41.29;100994.03;1085482;54;20042;-77
2022/03/26 01:36:46;;;;;;;33.10;20.88;;;;;;;9.65;41.56;100985.41;1085623;54;20050;-77
2022/03/26 01:37:48;;;;;;;29.98;20.25;;;;;;;9.67;41.36;100977.28;1085598;54;20066;-78
2022/03/26 01:38:52;;;;;;;33.58;21.55;;;;;;;9.65;41.53;100981.88;1085615;54;20049;-78
2022/03/26 01:39:54;;;;;;;34.55;22.00;;;;;;;9.56;41.83;100980.78;1085675;54;20062;-78
2022/03/26 01:40:58;;;;;;;31.05;20.40;;;;;;;9.52;41.75;100980.16;1085341;54;20042;-79
2022/03/26 01:42:04;;;;;;;35.03;22.92;;;;;;;9.50;41.99;100986.53;1085407;54;20049;-79
2022/03/26 01:43:06;;;;;;;37.80;21.98;;;;;;;9.41;42.24;100982.75;1085495;54;20150;-78
2022/03/26 01:44:15;;;;;;;34.70;20.70;;;;;;;9.43;42.09;100983.50;1085566;54;20035;-78
2022/03/26 01:45:16;;;;;;;39.58;23.00;;;;;;;9.41;42.11;100981.88;1085843;54;20046;-78
2022/03/26 01:46:21;;;;;;;32.65;21.55;;;;;;;9.43;42.00;100985.31;1085464;54;20874;-78
2022/03/26 01:47:22;;;;;;;31.92;22.33;;;;;;;9.38;42.09;100977.66;1085326;54;20150;-79
2022/03/26 01:48:27;;;;;;;31.23;22.48;;;;;;;9.39;42.32;100984.69;1085345;54;20039;-78
2022/03/26 01:49:29;;;;;;;35.25;23.30;;;;;;;9.34;42.44;100986.84;1086883;39;20449;-78
2022/03/26 01:50:36;;;;;;;32.15;21.63;;;;;;;9.30;42.58;100982.69;1085629;54;20042;-78
2022/03/26 01:51:37;;;;;;;29.45;20.98;;;;;;;9.30;42.66;100974.69;1085644;39;20436;-77
2022/03/26 01:52:42;;;;;;;31.70;20.55;;;;;;;9.34;42.18;100984.19;1085531;54;20034;-79
2022/03/26 01:53:45;;;;;;;32.63;19.67;;;;;;;9.36;42.23;100979.56;1085518;54;20039;-78
2022/03/26 01:54:50;;;;;;;32.17;21.95;;;;;;;9.38;42.15;100982.97;1085474;54;20042;-77
2022/03/26 01:55:51;;;;;;;32.83;21.40;;;;;;;9.38;42.20;100980.31;1085284;54;20045;-79
2022/03/26 01:56:56;;;;;;;30.42;20.50;;;;;;;9.41;42.11;100977.44;1085635;54;20035;-79
2022/03/26 01:57:57;;;;;;;28.98;20.00;;;;;;;9.42;41.95;100976.47;1085572;54;20043;-78
2022/03/26 01:59:03;;;;;;;27.92;19.60;;;;;;;9.46;41.85;100980.59;1085612;54;20049;-78
2022/03/26 02:00:09;;;;;;;28.63;18.25;;;;;;;9.47;41.93;100982.28;1085061;54;20042;-79
2022/03/26 02:01:11;;;;;;;27.05;19.63;;;;;;;9.46;41.78;100980.59;1085449;47;20137;-79
2022/03/26 02:02:15;;;;;;;28.52;18.00;;;;;;;9.52;41.74;100977.47;1081234;54;20042;-78
2022/03/26 02:03:17;;;;;;;27.17;18.52;;;;;;;9.49;41.83;100983.03;1085266;54;20050;-80
2022/03/26 02:04:21;;;;;;;36.00;22.67;;;;;;;9.38;42.19;100979.47;1085208;54;20060;-79
2022/03/26 02:05:23;;;;;;;32.00;21.05;;;;;;;9.42;42.27;100980.94;1085165;54;20030;-78
2022/03/26 02:06:32;;;;;;;31.33;20.67;;;;;;;9.42;42.15;100973.78;1085313;54;20027;-79
2022/03/26 02:07:33;;;;;;;31.80;20.77;;;;;;;9.41;42.03;100977.44;1085288;54;20876;-78
2022/03/26 02:08:38;;;;;;;36.33;20.52;;;;;;;9.43;41.81;100978.16;1085148;54;20579;-79
2022/03/26 02:09:40;;;;;;;28.35;19.27;;;;;;;9.47;41.51;100976.97;1085250;54;20062;-78
2022/03/26 02:10:44;;;;;;;30.05;18.90;;;;;;;9.54;41.63;100980.03;1085249;54;20588;-78
2022/03/26 02:11:46;;;;;;;28.10;18.45;;;;;;;9.54;41.38;100981.84;1085431;39;20405;-77
2022/03/26 02:12:51;;;;;;;25.77;17.05;;;;;;;9.60;41.34;100978.72;1085049;54;20057;-78
2022/03/26 02:13:56;;;;;;;25.80;17.05;;;;;;;9.60;41.38;100978.72;1085348;54;20038;-78
2022/03/26 02:14:59;;;;;;;29.38;17.55;;;;;;;9.55;41.39;100984.41;1087847;39;20132;-79
2022/03/26 02:16:04;;;;;;;25.38;17.33;;;;;;;9.62;41.20;100979.47;1085775;54;20045;-78
2022/03/26 02:17:08;;;;;;;29.38;18.10;;;;;;;9.60;41.37;100979.56;1085694;54;20039;-79
2022/03/26 02:18:10;;;;;;;25.90;17.83;;;;;;;9.61;41.51;100975.06;1086347;54;20106;-78
2022/03/26 02:19:15;;;;;;;26.27;16.75;;;;;;;9.66;41.15;100965.75;1086971;54;20046;-77
2022/03/26 02:20:22;;;;;;;21.92;15.23;;;;;;;9.75;40.91;100974.88;1087024;54;20086;-78
2022/03/26 02:21:27;;;;;;;24.90;17.38;;;;;;;9.78;40.83;100968.44;1086654;54;20041;-79
2022/03/26 02:22:29;;;;;;;24.15;16.13;;;;;;;9.77;41.10;100969.44;1085367;54;20034;-78
2022/03/26 02:23:33;;;;;;;22.85;15.90;;;;;;;9.81;40.99;100974.41;1085288;54;20038;-78
2022/03/26 02:24:35;;;;;;;22.08;15.30;;;;;;;9.83;40.75;100967.13;1085582;47;20066;-78
2022/03/26 02:25:39;;;;;;;21.42;14.50;;;;;;;9.82;40.92;100965.41;1085107;54;20034;-79
2022/03/26 02:26:41;;;;;;;20.98;14.77;;;;;;;9.81;40.78;100963.75;1085889;54;20053;-79
2022/03/26 02:27:45;;;;;;;26.20;17.98;;;;;;;9.64;41.48;100966.81;1086007;54;20065;-79
2022/03/26 02:28:49;;;;;;;29.42;19.65;;;;;;;9.54;41.98;100971.19;1086023;54;20034;-79
2022/03/26 02:29:54;;;;;;;27.77;18.73;;;;;;;9.50;41.82;100960.72;1085653;54;20565;-77
2022/03/26 02:30:55;;;;;;;27.23;18.27;;;;;;;9.61;41.70;100961.72;1085423;54;20042;-79
2022/03/26 02:32:00;;;;;;;27.63;17.70;;;;;;;9.60;41.40;100968.03;1085372;54;20038;-77
2022/03/26 02:33:01;;;;;;;25.40;16.50;;;;;;;9.64;41.34;100966.81;1085713;54;20058;-78
2022/03/26 02:34:07;;;;;;;24.98;16.50;;;;;;;9.66;41.39;100972.91;1085354;54;20035;-78
2022/03/26 02:35:11;;;;;;;21.73;16.10;;;;;;;9.69;41.30;100970.00;1085514;54;20046;-77
2022/03/26 02:36:15;;;;;;;23.73;16.17;;;;;;;9.69;41.17;100972.69;1085247;54;20046;-78
2022/03/26 02:37:20;;;;;;;22.35;15.25;;;;;;;9.71;41.33;100967.22;1085643;54;20034;-77
2022/03/26 02:38:23;;;;;;;23.83;16.23;;;;;;;9.74;41.04;100972.31;1085677;54;20034;-78
2022/03/26 02:39:27;;;;;;;23.25;15.30;;;;;;;9.74;41.21;100973.16;1085703;54;20783;-79
2022/03/26 02:40:31;;;;;;;22.58;14.60;;;;;;;9.77;40.86;100972.94;1085683;54;20038;-78
2022/03/26 02:41:34;;;;;;;21.17;14.23;;;;;;;9.78;40.88;100971.97;1085537;54;20034;-78
2022/03/26 02:42:39;;;;;;;22.92;14.18;;;;;;;9.76;40.97;100968.56;1085828;46;20042;-79
2022/03/26 02:43:40;;;;;;;22.67;14.38;;;;;;;9.72;41.09;100964.44;1085511;54;20046;-78
2022/03/26 02:44:45;;;;;;;21.60;14.38;;;;;;;9.74;40.89;100967.81;1085768;54;20053;-78
2022/03/26 02:45:47;;;;;;;22.98;14.88;;;;;;;9.76;41.06;100968.56;1085819;54;20043;-78
2022/03/26 02:46:51;;;;;;;23.20;15.65;;;;;;;9.78;41.01;100965.75;1085924;54;20042;-78
2022/03/26 02:47:52;;;;;;;23.15;15.20;;;;;;;9.74;40.92;100962.47;1085447;54;20042;-78
2022/03/26 02:48:56;;;;;;;21.67;14.48;;;;;;;9.73;41.04;100958.09;1085752;46;20042;-78
2022/03/26 02:49:58;;;;;;;20.95;14.65;;;;;;;9.73;40.65;100951.94;1085370;54;20053;-78
2022/03/26 02:51:02;;;;;;;22.08;15.18;;;;;;;9.72;40.69;100956.44;1089620;39;20425;-78
2022/03/26 02:52:07;;;;;;;25.58;16.30;;;;;;;9.73;40.65;100951.94;1086097;46;20038;-78
2022/03/26 02:53:13;;;;;;;22.67;14.52;;;;;;;9.73;40.75;100957.28;1087770;31;20603;-78
2022/03/26 02:54:18;;;;;;;24.15;16.23;;;;;;;9.64;41.15;100959.69;1085667;54;20042;-79
2022/03/26 02:55:22;;;;;;;26.77;17.17;;;;;;;9.64;41.06;100956.13;1086861;39;20425;-78
2022/03/26 02:56:24;;;;;;;23.85;16.38;;;;;;;9.64;40.82;100950.78;1085909;54;20034;-78
2022/03/26 02:57:28;;;;;;;24.23;15.90;;;;;;;9.61;40.94;100964.41;1085930;54;20631;-78
2022/03/26 02:58:32;;;;;;;23.83;16.02;;;;;;;9.61;41.13;100953.72;1085777;54;20039;-78
2022/03/26 02:59:34;;;;;;;33.42;19.90;;;;;;;9.40;41.27;100951.69;1085778;54;20073;-79
2022/03/26 03:00:39;;;;;;;28.77;18.73;;;;;;;9.28;41.74;100955.28;1085763;54;20061;-79
2022/03/26 19:31:23;;;;;;;16.52;8.52;;;;;;;17.10;26.65;100925.00;1077211;54;27341;-80
2022/03/26 19:32:26;;;;;;;20.95;9.00;;;;;;;16.78;26.98;100928.44;1087482;46;20054;-80
2022/03/26 19:33:30;;;;;;;20.77;9.43;;;;;;;16.59;27.44;100925.03;1087040;54;20073;-80
2022/03/26 19:34:32;;;;;;;18.00;9.93;;;;;;;16.50;27.31;100931.41;1087183;54;20065;-79
2022/03/26 19:35:37;;;;;;;18.80;8.90;;;;;;;16.47;27.57;100937.09;1089106;39;20468;-77
2022/03/26 19:36:38;;;;;;;16.92;8.13;;;;;;;16.36;27.49;100933.69;1087510;54;20038;-80
2022/03/26 19:37:43;;;;;;;15.70;8.30;;;;;;;16.38;27.39;100931.69;1087199;54;20065;-81
2022/03/26 19:38:45;;;;;;;14.25;8.60;;;;;;;16.35;27.56;100929.28;1087152;47;20050;-79
2022/03/26 19:39:49;;;;;;;14.63;8.00;;;;;;;16.34;27.65;100937.56;1087048;54;20039;-80
2022/03/26 19:40:52;;;;;;;13.38;8.55;;;;;;;16.29;27.50;100937.19;1087138;54;20039;-79
2022/03/26 19:41:56;;;;;;;11.88;7.40;;;;;;;16.27;27.53;100934.66;1089833;39;20561;-79
2022/03/26 19:42:58;;;;;;;14.35;8.20;;;;;;;16.21;27.86;100935.31;1087285;54;20054;-80
2022/03/26 19:44:02;;;;;;;13.98;8.23;;;;;;;16.21;28.13;100936.13;1087425;54;20167;-80
2022/03/26 19:45:07;;;;;;;12.20;7.72;;;;;;;16.21;28.07;100943.38;1087050;54;20042;-79
2022/03/26 19:46:09;;;;;;;13.95;8.23;;;;;;;16.14;28.45;100948.56;1088402;46;20035;-79
2022/03/26 19:47:16;;;;;;;11.48;7.75;;;;;;;16.17;28.46;100939.31;1087608;54;20061;-79
2022/03/26 19:48:21;;;;;;;12.52;8.20;;;;;;;16.14;28.50;100945.03;1087258;54;20043;-80
2022/03/26 19:49:22;;;;;;;20.05;8.48;;;;;;;16.11;28.31;100945.34;1087647;54;20046;-80
2022/03/26 19:50:27;;;;;;;14.20;8.05;;;;;;;16.01;28.62;100946.31;1087549;54;20030;-79
2022/03/26 19:51:29;;;;;;;15.07;8.13;;;;;;;16.01;28.62;100946.31;1087496;54;20034;-80
2022/03/26 19:52:34;;;;;;;13.52;7.80;;;;;;;15.93;28.89;100943.56;1088830;46;20067;-79
2022/03/26 19:53:36;;;;;;;14.35;7.53;;;;;;;15.93;28.98;100943.56;1087645;54;20097;-80
2022/03/26 19:54:41;;;;;;;12.43;7.65;;;;;;;15.88;28.88;100949.44;1091760;39;20259;-79
2022/03/26 19:55:43;;;;;;;13.02;7.88;;;;;;;15.86;28.78;100950.59;1088216;54;20035;-80
2022/03/26 19:56:47;;;;;;;14.32;7.00;;;;;;;15.85;28.85;100943.50;1087882;54;20086;-80
2022/03/26 19:57:52;;;;;;;12.45;7.10;;;;;;;15.82;28.79;100951.88;1087911;54;20046;-79
2022/03/26 19:58:54;;;;;;;15.27;8.07;;;;;;;15.71;29.36;100948.41;1088659;46;20034;-82
2022/03/26 19:59:59;;;;;;;14.02;8.73;;;;;;;15.68;29.55;100951.41;1087646;54;20026;-80
2022/03/26 20:01:01;;;;;;;14.50;8.13;;;;;;;15.60;29.67;100948.66;1087541;54;20046;-80
2022/03/26 20:02:06;;;;;;;23.83;9.73;;;;;;;15.49;29.68;100952.44;1087553;54;20038;-80
2022/03/26 20:03:13;;;;;;;16.85;10.05;;;;;;;15.36;30.44;100952.84;1087447;54;20046;-79
2022/03/26 20:04:15;;;;;;;20.55;11.05;;;;;;;15.27;30.36;100954.59;1087571;54;20034;-80
2022/03/26 20:05:19;;;;;;;19.92;10.93;;;;;;;15.18;30.54;100952.00;1087493;54;20049;-79
2022/03/26 20:06:21;;;;;;;19.60;11.52;;;;;;;14.99;31.23;100956.50;1089638;39;20756;-79
2022/03/26 20:07:25;;;;;;;22.00;12.80;;;;;;;14.95;31.54;100955.09;1087840;54;20049;-79
2022/03/26 20:08:27;;;;;;;19.52;12.75;;;;;;;14.91;31.36;100953.72;1087436;54;20030;-79
2022/03/26 20:09:31;;;;;;;22.30;12.73;;;;;;;14.86;31.58;100953.31;1087750;46;20090;-80
2022/03/26 20:10:32;;;;;;;23.05;13.82;;;;;;;14.71;32.06;100961.91;1087590;54;20623;-78
2022/03/26 20:11:38;;;;;;;27.70;15.43;;;;;;;14.55;32.45;100956.31;1087587;54;20062;-79
2022/03/26 20:12:39;;;;;;;29.05;16.73;;;;;;;14.51;32.48;100961.09;1087564;54;20090;-80
2022/03/26 20:13:47;;;;;;;24.30;14.93;;;;;;;14.55;32.23;100959.81;1087852;54;20029;-79
2022/03/26 20:14:51;;;;;;;27.25;15.32;;;;;;;14.41;32.68;100963.84;1088049;54;20011;-79
2022/03/26 20:15:53;;;;;;;28.17;16.30;;;;;;;14.35;32.82;100965.28;1087723;54;20054;-79
2022/03/26 20:19:33;;;;;;;30.92;18.67;;;;;;;14.24;32.87;100968.16;1087758;54;20034;-80
2022/03/26 20:20:37;;;;;;;29.85;18.40;;;;;;;14.31;32.83;100963.03;1087809;54;20046;-80
2022/03/26 20:21:38;;;;;;;25.95;16.98;;;;;;;14.45;32.60;100967.91;1087736;46;20572;-80
2022/03/26 20:22:44;;;;;;;24.08;15.82;;;;;;;14.51;32.32;100967.34;1087803;54;20038;-82
2022/03/26 20:23:46;;;;;;;26.65;17.27;;;;;;;14.48;32.16;100970.34;1087847;54;20030;-82
2022/03/26 20:24:53;;;;;;;26.15;18.05;;;;;;;14.32;32.62;100970.13;1090979;46;20611;-79
2022/03/26 20:25:58;;;;;;;26.90;16.98;;;;;;;14.27;32.65;100972.38;1087708;54;20035;-79
2022/03/26 20:27:00;;;;;;;33.85;19.08;;;;;;;14.14;33.14;100972.69;1087689;54;20197;-79
2022/03/26 20:28:05;;;;;;;30.25;18.83;;;;;;;14.14;33.00;100970.88;1087566;54;20085;-80
2022/03/26 20:29:06;;;;;;;35.80;18.75;;;;;;;14.07;33.00;100976.97;1087719;54;20039;-80
2022/03/26 20:30:11;;;;;;;28.48;18.60;;;;;;;14.03;33.29;100976.41;1087693;54;20090;-80
2022/03/26 20:31:12;;;;;;;29.05;18.42;;;;;;;14.05;33.19;100979.81;1087646;54;20043;-79
2022/03/26 20:32:18;;;;;;;32.58;19.55;;;;;;;13.96;33.36;100970.75;1087066;54;20094;-80
2022/03/26 20:33:25;;;;;;;30.23;18.90;;;;;;;14.00;33.57;100979.38;1088152;46;20010;-80
2022/03/26 20:34:29;;;;;;;28.67;18.55;;;;;;;14.12;33.04;100975.56;1087768;54;20111;-79
2022/03/26 20:35:32;;;;;;;34.72;20.30;;;;;;;13.80;33.77;100986.63;1087843;54;20053;-79
2022/03/26 20:36:36;;;;;;;26.20;17.45;;;;;;;14.02;33.55;100983.66;1087626;54;20058;-79
2022/03/26 20:37:41;;;;;;;25.05;17.45;;;;;;;14.07;33.40;100983.22;1087672;54;20058;-79
2022/03/26 20:38:47;;;;;;;22.67;16.15;;;;;;;14.13;33.03;100979.06;1087558;54;20034;-79
2022/03/26 20:39:51;;;;;;;25.05;16.85;;;;;;;14.16;33.05;100986.84;1088084;46;20073;-79
2022/03/26 20:40:53;;;;;;;21.98;15.73;;;;;;;14.20;33.04;100988.28;1087775;54;20038;-79
2022/03/26 20:41:57;;;;;;;23.73;15.93;;;;;;;14.12;33.15;100993.53;1093730;39;20437;-79
2022/03/26 20:43:01;;;;;;;26.60;16.95;;;;;;;14.08;33.14;100984.88;1087686;54;20049;-79
2022/03/26 20:44:04;;;;;;;22.00;16.15;;;;;;;14.14;33.06;100988.84;1091463;39;20516;-79
2022/03/26 20:45:09;;;;;;;29.67;19.05;;;;;;;13.89;33.40;100994.69;1088538;46;20051;-79
2022/03/26 20:46:11;;;;;;;27.42;17.25;;;;;;;13.98;33.33;100994.84;1088147;54;20042;-78
2022/03/26 20:47:15;;;;;;;29.77;18.58;;;;;;;13.70;34.08;100997.38;1087679;54;20038;-79
2022/03/26 20:48:19;;;;;;;30.58;18.58;;;;;;;13.81;33.78;100999.94;1087754;54;20042;-79
2022/03/26 20:49:26;;;;;;;29.08;20.08;;;;;;;13.65;34.24;101002.34;1087785;54;20087;-79
2022/03/26 20:50:31;;;;;;;33.63;20.40;;;;;;;13.58;34.58;101004.75;1087729;54;20647;-78
2022/03/26 20:51:36;;;;;;;30.80;19.48;;;;;;;13.69;34.36;101006.47;1092495;39;20476;-79
2022/03/26 20:52:40;;;;;;;30.98;17.63;;;;;;;13.75;34.09;101000.50;1087872;54;20038;-78
2022/03/26 20:53:42;;;;;;;28.55;18.13;;;;;;;13.73;34.10;101002.47;1088139;54;20023;-78
2022/03/26 20:54:46;;;;;;;27.02;17.95;;;;;;;13.75;34.01;101007.69;1089953;46;20034;-79
2022/03/26 20:55:51;;;;;;;32.47;20.67;;;;;;;13.50;34.68;100999.22;1087986;54;20045;-80
2022/03/26 20:56:55;;;;;;;32.67;18.42;;;;;;;13.60;34.35;101010.00;1087828;54;20081;-77
2022/03/26 20:57:57;;;;;;;28.77;19.02;;;;;;;13.67;34.23;101005.75;1087867;54;20038;-79
2022/03/26 20:59:02;;;;;;;27.25;17.95;;;;;;;13.73;34.18;101013.22;1087842;54;20090;-78
2022/03/26 21:00:07;;;;;;;23.55;16.70;;;;;;;13.77;33.84;101008.41;1087726;54;20583;-79
2022/03/26 21:01:13;;;;;;;36.42;18.88;;;;;;;13.53;34.51;101009.69;1087717;54;20035;-79
2022/03/26 21:02:19;;;;;;;34.85;19.10;;;;;;;13.53;34.25;101005.16;1087736;54;20059;-79
2022/03/26 21:03:21;;;;;;;31.30;18.02;;;;;;;13.63;34.32;101007.88;1087894;54;20059;-79
2022/03/26 21:04:27;;;;;;;28.52;17.40;;;;;;;13.62;34.33;101010.69;1089471;39;20615;-79
2022/03/26 21:05:29;;;;;;;36.42;17.55;;;;;;;13.53;34.43;101005.16;1088085;54;20038;-78
2022/03/26 21:06:33;;;;;;;27.00;16.85;;;;;;;13.57;34.33;101009.28;1088159;54;20742;-79
2022/03/26 21:07:35;;;;;;;30.77;17.67;;;;;;;13.56;34.46;101007.59;1088103;54;20042;-78
2022/03/26 21:08:39;;;;;;;26.60;16.52;;;;;;;13.57;34.52;101011.97;1088179;54;20018;-79
2022/03/26 21:09:44;;;;;;;31.50;17.85;;;;;;;13.54;34.75;101017.63;1088129;54;20038;-79
2022/03/26 21:10:45;;;;;;;27.55;16.52;;;;;;;13.54;34.49;101022.16;1087703;54;20149;-79
2022/03/26 21:11:49;;;;;;;24.48;16.23;;;;;;;13.54;34.31;101012.25;1088027;54;20060;-78
2022/03/26 21:12:51;;;;;;;25.00;15.55;;;;;;;13.30;35.14;101017.97;1089480;39;20637;-79
2022/03/26 21:13:55;;;;;;;21.77;15.07;;;;;;;13.46;34.73;101019.31;1088110;54;20030;-78
2022/03/26 21:14:57;;;;;;;21.45;14.18;;;;;;;13.51;34.68;101017.88;1088045;54;20037;-79
2022/03/26 21:16:01;;;;;;;24.85;14.25;;;;;;;13.47;34.76;101016.47;1088478;46;20631;-80
2022/03/26 21:17:03;;;;;;;19.15;13.15;;;;;;;13.52;34.63;101014.22;1088116;54;20031;-79
2022/03/26 21:18:08;;;;;;;20.20;14.10;;;;;;;13.50;34.27;101013.53;1087844;54;20037;-79
2022/03/26 21:19:09;;;;;;;25.52;13.35;;;;;;;13.48;34.51;101009.25;1088014;54;20623;-79
2022/03/26 21:20:16;;;;;;;23.00;12.68;;;;;;;13.47;34.33;101016.47;1088039;47;20041;-79
2022/03/26 21:21:18;;;;;;;23.58;12.60;;;;;;;13.45;34.31;101015.75;1087602;54;20038;-79
2022/03/26 21:22:22;;;;;;;26.70;12.43;;;;;;;13.42;34.46;101007.97;1091293;39;20658;-79
2022/03/26 21:23:24;;;;;;;18.65;11.55;;;;;;;13.44;34.31;101011.38;1087951;54;20040;-78